Time;durP1;ratioP1;P1;durP2;ratioP2;P2;SDS_P1;SDS_P2;PMS_P1;PMS_P2;Temp;Humidity;BMP_temperature;BMP_pressure;BME280_temperature;BME280_humidity;BME280_pressure;Samples;Min_cycle;Max_cycle;Signal;HPM_P1;HPM_P2
2022/02/25 00:01:21;;;;;;;34.30;23.23;;;11.40;62.00;;;;;;4993541;28;20058;-65
2022/02/25 00:03:46;;;;;;;29.33;22.48;;;11.30;62.30;;;;;;4993739;28;20077;-66
2022/02/25 00:06:12;;;;;;;33.85;23.27;;;11.30;62.00;;;;;;4993621;28;20535;-66
2022/02/25 00:08:37;;;;;;;31.65;21.73;;;11.20;61.90;;;;;;4993378;28;20027;-67
2022/02/25 00:11:03;;;;;;;38.65;23.13;;;11.20;62.20;;;;;;4993688;28;20036;-66
2022/02/25 00:13:29;;;;;;;37.95;23.48;;;11.20;62.30;;;;;;4993512;28;20030;-67
2022/02/25 00:15:57;;;;;;;30.17;20.95;;;11.20;62.40;;;;;;4993549;28;20109;-67
2022/02/25 00:18:25;;;;;;;31.02;21.15;;;11.20;62.30;;;;;;4993511;28;20023;-66
2022/02/25 00:20:50;;;;;;;33.15;20.73;;;11.20;62.30;;;;;;4993531;28;20030;-66
2022/02/25 00:23:16;;;;;;;26.63;19.90;;;11.10;62.40;;;;;;4995794;28;20026;-66
2022/02/25 00:25:42;;;;;;;31.13;20.20;;;11.10;62.40;;;;;;4997422;28;20041;-66
2022/02/25 00:28:07;;;;;;;24.80;18.42;;;11.10;62.70;;;;;;4997637;28;20015;-66
2022/02/25 00:30:33;;;;;;;26.92;19.02;;;11.00;62.70;;;;;;4997869;28;20034;-67
2022/02/25 00:32:59;;;;;;;29.95;19.58;;;11.00;63.00;;;;;;5001018;28;20022;-68
2022/02/25 00:35:25;;;;;;;28.70;18.55;;;11.00;63.40;;;;;;4999354;28;20125;-66
2022/02/25 00:37:50;;;;;;;29.08;18.60;;;11.00;63.50;;;;;;5016778;28;20018;-65
2022/02/25 00:40:16;;;;;;;25.83;17.88;;;11.00;63.50;;;;;;5017017;28;20379;-66
2022/02/25 00:42:42;;;;;;;27.63;19.92;;;11.00;63.30;;;;;;5017185;28;20022;-65
2022/02/25 00:45:08;;;;;;;30.55;18.17;;;11.00;63.40;;;;;;5016793;28;20054;-66
2022/02/25 00:47:34;;;;;;;25.95;17.85;;;11.00;63.60;;;;;;5015629;28;20096;-65
2022/02/25 00:50:00;;;;;;;25.75;16.73;;;10.90;63.20;;;;;;5016506;28;20056;-65
2022/02/25 00:52:26;;;;;;;25.48;17.52;;;10.90;63.60;;;;;;5016729;28;20034;-65
2022/02/25 00:54:51;;;;;;;25.70;17.95;;;10.80;63.40;;;;;;5016846;28;20025;-66
2022/02/25 00:57:17;;;;;;;25.27;16.65;;;10.80;63.60;;;;;;4998842;28;20030;-65
2022/02/25 00:59:43;;;;;;;25.95;16.70;;;10.80;63.70;;;;;;5016693;28;20109;-67
2022/02/25 01:02:08;;;;;;;25.52;16.77;;;10.80;63.80;;;;;;5016524;28;20018;-66
2022/02/25 01:04:34;;;;;;;30.30;17.38;;;10.90;64.10;;;;;;4998842;28;20363;-65
2022/02/25 01:07:00;;;;;;;26.35;16.65;;;10.90;64.00;;;;;;5016686;28;20029;-65
2022/02/25 01:09:25;;;;;;;26.95;16.77;;;10.90;63.60;;;;;;5016309;28;20371;-66
2022/02/25 01:11:51;;;;;;;24.30;16.30;;;10.80;63.60;;;;;;5016434;28;20084;-64
2022/02/25 01:14:18;;;;;;;20.20;15.45;;;10.90;64.30;;;;;;5016261;28;20030;-66
2022/02/25 01:16:43;;;;;;;21.17;14.82;;;10.80;63.80;;;;;;5016242;28;20025;-65
2022/02/25 01:19:09;;;;;;;22.60;15.45;;;10.70;64.60;;;;;;5016255;28;20022;-66
2022/02/25 01:21:35;;;;;;;20.00;14.13;;;10.60;63.90;;;;;;5016252;28;20379;-68
2022/02/25 01:24:00;;;;;;;21.17;13.73;;;10.60;64.30;;;;;;5016583;28;20105;-65
2022/02/25 01:26:27;;;;;;;20.25;13.02;;;10.60;64.00;;;;;;5015878;28;20044;-67
2022/02/25 01:28:53;;;;;;;16.40;12.18;;;10.50;63.90;;;;;;5015901;28;20474;-65
2022/02/25 01:31:19;;;;;;;16.77;12.30;;;10.50;63.90;;;;;;5015833;28;20088;-65
2022/02/25 01:33:46;;;;;;;18.95;10.75;;;10.40;63.80;;;;;;5015282;28;20353;-66
2022/02/25 01:36:12;;;;;;;17.60;11.52;;;10.30;64.00;;;;;;5015564;28;20050;-67
2022/02/25 01:38:38;;;;;;;16.13;11.75;;;10.30;64.40;;;;;;5015799;28;20183;-69
2022/02/25 01:41:04;;;;;;;17.85;11.68;;;10.20;64.50;;;;;;5015789;28;20487;-67
2022/02/25 01:43:30;;;;;;;14.73;10.68;;;10.30;64.50;;;;;;5015609;28;20065;-66
2022/02/25 01:45:55;;;;;;;17.67;11.57;;;10.20;64.20;;;;;;5015624;28;20135;-66
2022/02/25 01:48:21;;;;;;;17.98;11.15;;;10.20;64.30;;;;;;5015550;28;20497;-66
2022/02/25 01:50:47;;;;;;;15.02;10.63;;;10.10;64.10;;;;;;4997997;28;20018;-68
2022/02/25 01:53:14;;;;;;;17.35;10.52;;;10.10;64.10;;;;;;5015784;28;20026;-66
2022/02/25 01:55:42;;;;;;;16.00;10.73;;;10.00;64.30;;;;;;4997836;28;20109;-66
2022/02/25 01:58:08;;;;;;;16.95;10.20;;;10.00;64.50;;;;;;5015415;28;20030;-65
2022/02/25 02:00:35;;;;;;;16.77;9.95;;;10.00;64.30;;;;;;5015273;28;20022;-67
2022/02/25 02:03:01;;;;;;;17.25;10.63;;;10.00;64.50;;;;;;5015267;28;20108;-67
2022/02/25 02:05:28;;;;;;;14.93;10.13;;;10.10;64.60;;;;;;5015412;28;20021;-66
2022/02/25 02:07:54;;;;;;;17.20;10.13;;;10.00;64.40;;;;;;5015249;28;20034;-66
2022/02/25 02:10:20;;;;;;;13.77;9.25;;;10.00;64.40;;;;;;5015723;28;20025;-69
2022/02/25 02:12:45;;;;;;;14.80;10.10;;;10.00;64.50;;;;;;5015506;28;20036;-66
2022/02/25 02:15:12;;;;;;;13.38;9.73;;;10.00;64.60;;;;;;5015185;28;20109;-65
2022/02/25 02:17:38;;;;;;;15.35;9.82;;;10.00;64.30;;;;;;5014967;28;20021;-67
2022/02/25 02:20:05;;;;;;;16.10;10.13;;;10.00;64.50;;;;;;5015012;28;20038;-65
2022/02/25 02:22:32;;;;;;;14.50;9.85;;;10.00;64.50;;;;;;5015568;28;20030;-69
2022/02/25 02:24:58;;;;;;;15.30;8.70;;;10.00;64.50;;;;;;5016445;28;20045;-67
2022/02/25 02:28:17;;;;;;;16.92;9.25;;;10.00;64.50;;;;;;5015718;28;20198;-67
2022/02/25 02:30:10;;;;;;;13.27;8.98;;;10.10;64.50;;;;;;5014720;28;20137;-66
2022/02/25 02:32:36;;;;;;;13.55;9.05;;;10.00;64.30;;;;;;5014617;28;20033;-66
2022/02/25 02:35:02;;;;;;;13.20;8.55;;;10.00;64.40;;;;;;5014714;28;20045;-65
2022/02/25 02:37:28;;;;;;;17.95;9.48;;;10.10;64.30;;;;;;5014881;28;20557;-66
2022/02/25 02:39:54;;;;;;;12.05;8.30;;;10.10;64.10;;;;;;5014438;28;20026;-67
2022/02/25 02:42:19;;;;;;;13.20;9.30;;;10.10;63.70;;;;;;5014634;28;20056;-66
2022/02/25 02:44:47;;;;;;;13.18;9.50;;;10.10;63.60;;;;;;5014533;28;20050;-65
2022/02/25 02:47:12;;;;;;;13.45;8.70;;;10.10;64.00;;;;;;5014343;28;20038;-67
2022/02/25 02:49:38;;;;;;;12.77;8.32;;;10.10;63.90;;;;;;5014278;28;20526;-69
2022/02/25 02:52:04;;;;;;;15.50;8.85;;;10.10;64.00;;;;;;5014504;28;20026;-67
2022/02/25 02:54:30;;;;;;;13.40;8.90;;;10.10;64.30;;;;;;5014476;28;20025;-66
2022/02/25 02:56:55;;;;;;;13.88;8.85;;;10.10;64.20;;;;;;5014602;28;20026;-66
2022/02/25 02:59:21;;;;;;;13.05;8.43;;;10.10;64.40;;;;;;5014622;28;20371;-66
2022/02/25 03:01:47;;;;;;;12.75;8.52;;;10.00;64.50;;;;;;5014818;28;20157;-66
2022/02/25 03:04:12;;;;;;;15.07;9.13;;;10.00;64.30;;;;;;5014289;28;20036;-67
2022/02/25 03:06:38;;;;;;;13.93;8.65;;;10.10;64.70;;;;;;5014323;28;20041;-66
2022/02/25 03:09:04;;;;;;;13.30;8.50;;;10.10;64.40;;;;;;5014061;28;20559;-65
2022/02/25 03:11:30;;;;;;;14.30;8.55;;;10.10;64.50;;;;;;5014024;28;20387;-65
2022/02/25 03:13:58;;;;;;;12.05;8.40;;;10.10;64.40;;;;;;5014033;28;20026;-64
2022/02/25 03:16:24;;;;;;;13.68;8.40;;;10.10;64.20;;;;;;5013978;28;20050;-66
2022/02/25 03:18:50;;;;;;;13.98;8.40;;;10.00;63.80;;;;;;5014090;28;20471;-66
2022/02/25 03:21:16;;;;;;;12.85;8.30;;;10.00;64.60;;;;;;5013938;28;20037;-66
2022/02/25 03:23:42;;;;;;;11.73;8.25;;;10.00;64.60;;;;;;5013873;28;20026;-66
2022/02/25 03:26:10;;;;;;;11.82;7.40;;;10.00;64.90;;;;;;5013761;28;20360;-65
2022/02/25 03:28:36;;;;;;;12.52;8.00;;;10.00;64.20;;;;;;4995974;28;20103;-67
2022/02/25 03:31:01;;;;;;;11.18;7.07;;;10.00;64.20;;;;;;4996447;28;20026;-65
2022/02/25 03:33:27;;;;;;;10.57;7.15;;;10.00;63.90;;;;;;5013766;28;20030;-66
2022/02/25 03:35:53;;;;;;;10.90;6.05;;;9.90;64.90;;;;;;4996053;28;20049;-66
2022/02/25 03:38:19;;;;;;;10.07;6.38;;;9.90;64.70;;;;;;5013655;28;20148;-65
2022/02/25 03:40:44;;;;;;;11.18;5.68;;;9.90;64.70;;;;;;5013465;28;20026;-65
2022/02/25 03:43:10;;;;;;;11.60;5.80;;;9.90;64.10;;;;;;5013750;28;20109;-67
2022/02/25 03:45:36;;;;;;;10.88;5.70;;;9.80;63.90;;;;;;5013235;28;20080;-65
2022/02/25 03:48:02;;;;;;;10.05;6.40;;;9.80;63.90;;;;;;5013269;28;20136;-64
2022/02/25 03:50:28;;;;;;;9.15;6.10;;;9.80;64.20;;;;;;5013493;28;20147;-65
2022/02/25 03:52:54;;;;;;;10.63;6.25;;;9.70;64.00;;;;;;5013389;28;20050;-65
2022/02/25 03:55:20;;;;;;;10.88;6.28;;;9.70;64.20;;;;;;5013538;28;20093;-66
2022/02/25 03:57:46;;;;;;;11.68;6.30;;;9.70;64.30;;;;;;5012562;28;20065;-65
2022/02/25 04:00:12;;;;;;;10.10;6.00;;;9.70;64.70;;;;;;5013329;28;20018;-66
2022/02/25 04:02:39;;;;;;;11.60;6.40;;;9.60;64.70;;;;;;5013577;28;20030;-66
2022/02/25 04:05:05;;;;;;;9.75;5.90;;;9.70;64.80;;;;;;5013126;28;20033;-66
2022/02/25 04:07:31;;;;;;;13.52;6.05;;;9.70;64.90;;;;;;5013337;28;20324;-66
2022/02/25 04:09:56;;;;;;;16.00;8.50;;;9.80;64.80;;;;;;5013298;28;20146;-66
2022/02/25 04:12:22;;;;;;;10.02;6.85;;;9.80;64.50;;;;;;5013030;28;20030;-65
2022/02/25 04:14:47;;;;;;;9.15;6.47;;;9.90;64.70;;;;;;5013450;28;20022;-65
2022/02/25 04:17:18;;;;;;;9.88;6.25;;;9.80;64.30;;;;;;5013127;28;20192;-70
2022/02/25 04:19:44;;;;;;;9.93;6.20;;;9.90;64.30;;;;;;5013030;28;20041;-67
2022/02/25 04:22:10;;;;;;;11.95;6.32;;;9.90;64.40;;;;;;5013012;28;20022;-68
2022/02/25 04:24:36;;;;;;;13.40;6.40;;;10.00;63.20;;;;;;5013227;28;20034;-65
2022/02/25 04:27:01;;;;;;;11.43;6.78;;;10.10;63.10;;;;;;5012937;28;20038;-66
2022/02/25 04:29:27;;;;;;;11.68;7.85;;;10.10;62.90;;;;;;5013275;28;20084;-68
2022/02/25 04:31:53;;;;;;;10.38;6.53;;;10.10;63.20;;;;;;5013264;28;20022;-66
2022/02/25 04:34:18;;;;;;;11.43;7.50;;;10.10;63.40;;;;;;5012987;28;20034;-65
2022/02/25 04:36:45;;;;;;;12.05;7.18;;;10.00;63.60;;;;;;5013278;28;20036;-65
2022/02/25 04:39:10;;;;;;;11.20;8.02;;;10.00;63.60;;;;;;5012742;28;20096;-66
2022/02/25 04:41:37;;;;;;;12.95;8.25;;;10.00;63.80;;;;;;5012774;28;20471;-65
2022/02/25 04:44:03;;;;;;;11.60;7.65;;;9.90;65.70;;;;;;5012690;28;20427;-66
2022/02/25 04:46:29;;;;;;;10.48;7.43;;;9.80;66.00;;;;;;5012775;28;20368;-69
2022/02/25 04:48:54;;;;;;;13.35;8.07;;;9.80;66.00;;;;;;5012769;28;20045;-66
2022/02/25 04:51:21;;;;;;;15.02;7.93;;;9.70;66.10;;;;;;5013015;28;20030;-66
2022/02/25 04:53:47;;;;;;;12.77;7.47;;;9.70;66.70;;;;;;5012640;28;20486;-64
2022/02/25 04:56:14;;;;;;;12.18;7.45;;;9.80;66.60;;;;;;4995174;28;20068;-66
2022/02/25 04:58:40;;;;;;;12.88;7.50;;;9.80;66.50;;;;;;5012973;28;20037;-65
2022/02/25 05:01:06;;;;;;;10.80;7.15;;;9.80;66.30;;;;;;5012974;28;20026;-68
2022/02/25 05:03:32;;;;;;;11.60;7.18;;;9.90;66.10;;;;;;5012784;28;20057;-68
2022/02/25 05:05:59;;;;;;;12.20;7.45;;;9.80;65.90;;;;;;5013026;28;20042;-68
2022/02/25 05:08:24;;;;;;;13.00;7.18;;;9.80;65.70;;;;;;4995734;28;20048;-67
2022/02/25 05:10:51;;;;;;;10.73;6.47;;;9.80;66.20;;;;;;5016586;28;20029;-72
2022/02/25 05:13:16;;;;;;;11.63;7.13;;;9.80;65.80;;;;;;5016295;28;20056;-68
2022/02/25 05:21:12;;;;;;;14.48;7.68;;;9.60;65.80;;;;;;5016438;28;20521;-66
2022/02/25 05:23:38;;;;;;;10.85;7.18;;;9.50;66.30;;;;;;5016214;28;20097;-66
2022/02/25 05:26:04;;;;;;;10.50;6.60;;;9.60;66.70;;;;;;5015994;28;20060;-68
2022/02/25 05:28:30;;;;;;;12.63;7.20;;;9.50;67.70;;;;;;5016024;28;20018;-67
2022/02/25 05:30:56;;;;;;;10.68;7.00;;;9.50;67.50;;;;;;5016254;28;20448;-66
2022/02/25 05:33:21;;;;;;;13.65;6.50;;;9.40;67.10;;;;;;5015821;28;20018;-66
2022/02/25 05:35:47;;;;;;;12.23;7.72;;;9.40;67.30;;;;;;5016079;28;20467;-67
2022/02/25 05:38:13;;;;;;;11.90;6.63;;;9.40;67.20;;;;;;5016091;28;20053;-66
2022/02/25 05:40:40;;;;;;;12.15;6.85;;;9.40;67.50;;;;;;5015670;28;20489;-70
2022/02/25 05:43:05;;;;;;;12.35;6.88;;;9.30;67.40;;;;;;5016379;28;20328;-67
2022/02/25 05:45:31;;;;;;;12.80;7.13;;;9.20;67.50;;;;;;5015605;28;20069;-65
2022/02/25 05:47:57;;;;;;;9.68;6.82;;;9.20;67.70;;;;;;5015606;28;20030;-66
2022/02/25 05:50:24;;;;;;;12.75;7.20;;;9.20;67.80;;;;;;5015616;28;20037;-65
2022/02/25 05:52:50;;;;;;;11.38;7.07;;;9.20;67.60;;;;;;5015763;28;20352;-66
2022/02/25 05:55:17;;;;;;;11.82;6.78;;;9.20;67.70;;;;;;5015747;28;20467;-69
2022/02/25 05:57:44;;;;;;;12.43;7.00;;;9.20;67.30;;;;;;5015398;28;20022;-68
2022/02/25 06:00:12;;;;;;;13.02;7.05;;;9.20;67.40;;;;;;5015587;28;20026;-66
2022/02/25 06:02:38;;;;;;;11.45;6.68;;;9.10;67.10;;;;;;5016394;28;20030;-66
2022/02/25 06:05:04;;;;;;;12.45;6.05;;;9.10;67.20;;;;;;5015801;28;20058;-65
2022/02/25 06:07:30;;;;;;;11.23;5.80;;;9.10;67.10;;;;;;5015466;28;20030;-67
2022/02/25 06:09:56;;;;;;;11.60;6.07;;;9.20;66.40;;;;;;5015438;28;20036;-65
2022/02/25 06:12:21;;;;;;;12.55;5.53;;;9.10;65.90;;;;;;5015244;28;20032;-71
2022/02/25 06:14:47;;;;;;;8.80;5.18;;;9.20;65.40;;;;;;4982445;28;20087;-63
2022/02/25 06:17:13;;;;;;;10.30;5.10;;;9.10;64.70;;;;;;4995308;28;20029;-64
2022/02/25 06:19:38;;;;;;;10.65;4.95;;;9.10;63.90;;;;;;5004642;28;20033;-65
2022/02/25 06:22:05;;;;;;;11.77;5.05;;;9.10;63.80;;;;;;5012071;28;20040;-64
2022/02/25 06:24:31;;;;;;;15.68;4.88;;;9.00;62.90;;;;;;5014620;28;20017;-65
2022/02/25 06:26:56;;;;;;;11.73;5.43;;;9.00;63.40;;;;;;5014922;28;20531;-68
2022/02/25 06:29:22;;;;;;;10.30;4.78;;;9.00;63.20;;;;;;5014676;28;20022;-71
2022/02/25 06:31:48;;;;;;;11.18;5.07;;;9.00;63.20;;;;;;5014734;28;20022;-67
2022/02/25 06:34:14;;;;;;;13.73;5.25;;;9.00;63.10;;;;;;5014820;28;20510;-65
2022/02/25 06:36:40;;;;;;;13.18;5.07;;;9.00;62.70;;;;;;5011146;28;20117;-66
2022/02/25 06:39:06;;;;;;;13.05;5.18;;;9.00;62.40;;;;;;4996869;28;20030;-71
2022/02/25 06:41:31;;;;;;;8.43;4.78;;;9.00;62.10;;;;;;5011812;28;20055;-66
2022/02/25 06:43:57;;;;;;;12.43;4.80;;;9.10;62.10;;;;;;5006237;28;20118;-73
2022/02/25 06:46:24;;;;;;;12.63;4.60;;;9.10;61.70;;;;;;4994280;28;20506;-69
2022/02/25 06:48:50;;;;;;;10.43;5.15;;;9.20;61.70;;;;;;4994647;28;20026;-68
2022/02/25 06:51:16;;;;;;;13.05;5.78;;;9.20;61.80;;;;;;4994667;28;20188;-65
2022/02/25 06:53:42;;;;;;;10.20;5.18;;;9.20;61.10;;;;;;4994485;28;20027;-67
2022/02/25 06:56:07;;;;;;;13.02;5.57;;;9.30;61.00;;;;;;4994452;28;20037;-69
2022/02/25 06:58:34;;;;;;;11.00;5.50;;;9.40;61.20;;;;;;4994548;28;20027;-66
2022/02/25 07:01:02;;;;;;;10.82;5.60;;;9.60;60.90;;;;;;5000771;28;20026;-66
2022/02/25 07:03:27;;;;;;;12.93;5.10;;;9.70;60.50;;;;;;5013862;28;20479;-66
2022/02/25 07:05:54;;;;;;;11.85;4.90;;;9.80;59.70;;;;;;5013877;28;20033;-69
2022/02/25 07:08:22;;;;;;;7.80;4.53;;;10.00;58.70;;;;;;5010849;28;20030;-70
2022/02/25 07:10:48;;;;;;;18.67;5.95;;;10.20;58.80;;;;;;5014541;28;20355;-65
2022/02/25 07:13:14;;;;;;;10.10;5.40;;;10.20;57.80;;;;;;5014127;28;20472;-66
2022/02/25 07:15:41;;;;;;;14.10;5.70;;;10.40;58.30;;;;;;5010536;28;20022;-76
2022/02/25 07:18:08;;;;;;;13.90;4.80;;;10.40;57.50;;;;;;4993889;28;20399;-71
2022/02/25 07:20:35;;;;;;;19.38;5.07;;;10.50;57.20;;;;;;4994122;28;20022;-68
2022/02/25 07:23:01;;;;;;;11.82;5.00;;;10.60;57.60;;;;;;5001929;28;20026;-68
2022/02/25 07:25:27;;;;;;;13.13;5.25;;;10.70;57.10;;;;;;4988181;28;20408;-73
2022/02/25 07:27:53;;;;;;;9.18;5.30;;;10.90;57.10;;;;;;4993801;28;20361;-67
2022/02/25 07:30:20;;;;;;;10.38;5.50;;;11.00;56.90;;;;;;4993580;28;20048;-65
2022/02/25 07:32:46;;;;;;;13.60;6.00;;;11.10;56.50;;;;;;4993301;28;20030;-75
2022/02/25 07:35:12;;;;;;;18.42;7.88;;;11.20;56.70;;;;;;4995925;28;20356;-72
2022/02/25 07:37:39;;;;;;;17.58;8.88;;;11.30;56.70;;;;;;5003697;28;20494;-72
2022/02/25 07:40:07;;;;;;;16.48;8.07;;;11.50;56.30;;;;;;4993898;28;20027;-70
2022/02/25 07:42:34;;;;;;;16.40;7.78;;;11.40;56.20;;;;;;4993879;28;20042;-71
2022/02/25 07:44:59;;;;;;;14.88;7.10;;;11.50;56.20;;;;;;4993352;28;20483;-74
2022/02/25 07:47:26;;;;;;;21.98;7.43;;;11.60;56.60;;;;;;4993525;28;20140;-76
2022/02/25 07:49:53;;;;;;;16.23;7.50;;;11.70;55.90;;;;;;4993678;28;20476;-74
2022/02/25 07:52:20;;;;;;;20.50;10.50;;;11.80;56.10;;;;;;4992559;28;20035;-69
2022/02/25 07:54:46;;;;;;;17.30;10.80;;;11.90;55.30;;;;;;4993485;28;20019;-68
2022/02/25 07:57:13;;;;;;;17.17;10.07;;;12.00;56.10;;;;;;4993476;28;20023;-73
2022/02/25 07:59:39;;;;;;;19.42;8.57;;;12.10;55.20;;;;;;4993635;28;20371;-75
2022/02/25 08:02:05;;;;;;;18.92;9.32;;;12.20;55.30;;;;;;4993619;28;20030;-72
2022/02/25 08:04:30;;;;;;;17.45;9.32;;;12.40;55.70;;;;;;4975990;28;20030;-69
2022/02/25 08:06:56;;;;;;;24.25;10.15;;;12.50;55.40;;;;;;4993348;28;20375;-71
2022/02/25 08:09:22;;;;;;;23.00;9.82;;;12.60;55.00;;;;;;4993526;28;20034;-69
2022/02/25 08:11:48;;;;;;;20.80;10.43;;;12.70;55.20;;;;;;4992338;28;20038;-70
2022/02/25 08:14:14;;;;;;;18.20;9.38;;;12.60;54.80;;;;;;4993246;28;20022;-68
2022/02/25 08:16:40;;;;;;;35.22;16.35;;;12.60;54.60;;;;;;4975615;28;20464;-67
2022/02/25 08:19:07;;;;;;;21.63;12.68;;;12.70;55.00;;;;;;4992947;28;20460;-69
2022/02/25 08:21:34;;;;;;;22.10;10.90;;;12.80;55.20;;;;;;4993292;28;20539;-70
2022/02/25 08:24:00;;;;;;;21.98;11.63;;;12.80;54.50;;;;;;4993450;28;20372;-70
2022/02/25 08:26:27;;;;;;;21.73;11.15;;;12.80;54.40;;;;;;4992929;28;20049;-69
2022/02/25 08:28:55;;;;;;;21.00;10.68;;;12.80;54.20;;;;;;4992838;28;20022;-70
2022/02/25 08:31:21;;;;;;;21.38;9.73;;;12.80;54.60;;;;;;4992861;28;20024;-70
2022/02/25 08:33:47;;;;;;;22.17;9.98;;;12.70;54.60;;;;;;4993030;28;20019;-69
2022/02/25 08:36:13;;;;;;;19.48;10.18;;;12.70;54.80;;;;;;4975527;28;20032;-71
2022/02/25 08:38:38;;;;;;;16.55;9.93;;;12.70;54.70;;;;;;4992978;28;20026;-70
2022/02/25 08:41:04;;;;;;;21.38;11.15;;;12.70;54.70;;;;;;4975432;28;20442;-68
2022/02/25 08:43:31;;;;;;;23.95;10.05;;;12.60;54.70;;;;;;4993975;28;20157;-68
2022/02/25 08:45:58;;;;;;;19.85;10.35;;;12.70;55.00;;;;;;4996748;28;20082;-69
2022/02/25 08:48:24;;;;;;;20.40;10.20;;;12.70;54.70;;;;;;4996924;28;20443;-70
2022/02/25 08:50:50;;;;;;;21.27;10.38;;;12.70;54.80;;;;;;4979312;28;20050;-68
2022/02/25 08:53:16;;;;;;;19.17;10.15;;;12.80;55.20;;;;;;4996734;28;20030;-69
2022/02/25 08:55:42;;;;;;;17.48;9.45;;;12.80;55.30;;;;;;4996882;28;20019;-70
2022/02/25 08:58:08;;;;;;;19.98;10.15;;;12.90;55.30;;;;;;4997074;28;20031;-68
2022/02/25 09:00:34;;;;;;;17.60;9.85;;;13.00;55.40;;;;;;4996671;28;20383;-68
2022/02/25 09:03:00;;;;;;;16.00;10.02;;;13.10;55.70;;;;;;4979045;28;20030;-69
2022/02/25 09:05:26;;;;;;;18.30;10.35;;;13.10;55.80;;;;;;4996756;28;20023;-70
2022/02/25 09:07:53;;;;;;;24.02;10.15;;;13.20;56.10;;;;;;4996537;28;20129;-70
2022/02/25 09:10:20;;;;;;;20.00;9.13;;;13.20;56.10;;;;;;4996788;28;20391;-68
2022/02/25 09:12:47;;;;;;;18.52;9.55;;;13.30;56.30;;;;;;4996629;28;20030;-70
2022/02/25 09:15:16;;;;;;;25.90;9.77;;;13.30;56.50;;;;;;4978987;28;20471;-69
2022/02/25 09:17:42;;;;;;;23.65;9.73;;;13.40;57.00;;;;;;4996342;28;20027;-69
2022/02/25 09:20:10;;;;;;;22.98;8.93;;;13.50;57.30;;;;;;4996509;28;20081;-69
2022/02/25 09:22:36;;;;;;;18.75;12.02;;;13.60;57.60;;;;;;4996653;28;20022;-69
2022/02/25 09:25:03;;;;;;;31.55;17.30;;;13.60;57.90;;;;;;4996333;28;20125;-69
2022/02/25 09:27:29;;;;;;;14.55;8.23;;;13.80;58.30;;;;;;4978556;28;20046;-69
2022/02/25 09:29:56;;;;;;;12.93;6.55;;;13.90;59.20;;;;;;4995959;28;20113;-69
2022/02/25 09:32:22;;;;;;;12.18;5.55;;;14.00;60.20;;;;;;4995965;28;20085;-68
2022/02/25 09:34:47;;;;;;;14.20;6.85;;;14.10;60.40;;;;;;4996276;28;20014;-73
2022/02/25 09:37:14;;;;;;;11.93;6.53;;;14.10;60.80;;;;;;4996431;28;20037;-70
2022/02/25 09:39:39;;;;;;;11.07;6.22;;;14.20;61.50;;;;;;4979617;28;20022;-68
2022/02/25 09:42:07;;;;;;;13.73;7.03;;;14.30;61.70;;;;;;4997714;28;20037;-69
2022/02/25 09:44:34;;;;;;;11.85;6.57;;;14.40;62.20;;;;;;4996137;28;20130;-68
2022/02/25 09:47:00;;;;;;;10.85;5.03;;;14.50;62.60;;;;;;4995896;28;20031;-74
2022/02/25 09:49:26;;;;;;;10.38;4.50;;;14.60;63.10;;;;;;4995690;28;20034;-73
2022/02/25 09:51:53;;;;;;;10.00;4.75;;;14.60;63.30;;;;;;4978102;28;20042;-69
2022/02/25 09:54:19;;;;;;;8.23;3.55;;;14.70;63.60;;;;;;4995296;28;20030;-68
2022/02/25 09:56:46;;;;;;;12.10;4.22;;;14.80;64.20;;;;;;4994630;28;20464;-69
2022/02/25 09:59:13;;;;;;;9.68;3.80;;;14.90;64.10;;;;;;4995540;28;20030;-68
2022/02/25 10:01:39;;;;;;;7.78;3.25;;;15.00;63.90;;;;;;4995781;28;20033;-68
2022/02/25 10:04:22;;;;;;;8.00;2.63;;;15.20;63.80;;;;;;4995783;28;20106;-68
2022/02/25 10:06:49;;;;;;;6.55;2.50;;;15.30;63.40;;;;;;4995120;28;20038;-70
2022/02/25 10:09:31;;;;;;;6.60;2.30;;;15.40;63.10;;;;;;4995284;28;20023;-76
2022/02/25 10:12:03;;;;;;;6.35;2.40;;;15.50;63.00;;;;;;4995240;28;20484;-73
2022/02/25 10:14:41;;;;;;;5.50;2.60;;;15.60;62.70;;;;;;4995318;28;20023;-71
2022/02/25 10:17:17;;;;;;;9.60;2.95;;;15.70;62.60;;;;;;4995230;28;20476;-75
2022/02/25 10:19:49;;;;;;;7.13;2.38;;;15.90;62.10;;;;;;4995274;28;20357;-74
2022/02/25 10:22:18;;;;;;;7.10;2.53;;;16.00;61.80;;;;;;4995479;28;20034;-73
2022/02/25 10:24:53;;;;;;;7.68;2.40;;;16.10;61.50;;;;;;4995504;28;20073;-71
2022/02/25 10:27:23;;;;;;;10.20;3.50;;;16.20;61.00;;;;;;4994127;28;20070;-74
2022/02/25 10:29:59;;;;;;;6.75;2.65;;;16.40;60.40;;;;;;4995375;28;20423;-72
2022/02/25 10:32:33;;;;;;;6.72;2.38;;;16.40;59.60;;;;;;4994863;28;20089;-69
2022/02/25 10:35:01;;;;;;;7.47;2.33;;;16.40;59.30;;;;;;4994848;28;20044;-69
2022/02/25 10:37:26;;;;;;;9.52;2.72;;;16.50;60.00;;;;;;4994678;28;20505;-70
2022/02/25 10:39:53;;;;;;;14.32;3.53;;;16.60;59.60;;;;;;4995007;28;20045;-74
2022/02/25 10:42:24;;;;;;;6.75;2.58;;;16.70;59.30;;;;;;4994886;28;20479;-72
2022/02/25 10:44:58;;;;;;;6.75;2.35;;;16.80;58.90;;;;;;4994924;28;20038;-72
2022/02/25 10:47:28;;;;;;;8.20;2.67;;;16.80;58.20;;;;;;4994598;28;20050;-75
2022/02/25 10:49:59;;;;;;;6.38;2.70;;;16.90;57.80;;;;;;4994676;28;20031;-70
2022/02/25 10:52:26;;;;;;;9.05;3.40;;;17.00;57.50;;;;;;4994952;28;20069;-72
2022/02/25 10:54:53;;;;;;;6.93;2.22;;;17.10;57.20;;;;;;4995144;28;20058;-75
2022/02/25 10:57:19;;;;;;;6.53;2.60;;;17.00;57.60;;;;;;4994629;28;20093;-70
2022/02/25 10:59:47;;;;;;;9.23;3.30;;;17.10;56.60;;;;;;4994636;28;20423;-72
2022/02/25 11:02:22;;;;;;;6.07;3.67;;;17.20;56.40;;;;;;4994764;28;20026;-71
2022/02/25 11:05:19;;;;;;;10.15;4.45;;;17.30;56.00;;;;;;4994579;28;20072;-71
2022/02/25 11:07:51;;;;;;;9.32;3.72;;;17.50;55.90;;;;;;4978137;28;20050;-69
2022/02/25 11:10:20;;;;;;;6.95;3.45;;;17.50;55.40;;;;;;4994443;28;20365;-72
2022/02/25 11:12:47;;;;;;;7.53;2.95;;;17.50;56.00;;;;;;4994393;28;20026;-73
2022/02/25 11:15:20;;;;;;;5.95;2.40;;;17.50;56.40;;;;;;4994228;28;20030;-69
2022/02/25 11:17:47;;;;;;;8.98;2.67;;;17.60;56.20;;;;;;4994127;28;20037;-75
2022/02/25 11:20:17;;;;;;;8.07;3.22;;;17.60;56.30;;;;;;4994261;28;20462;-68
2022/02/25 11:22:43;;;;;;;6.55;1.80;;;17.70;56.10;;;;;;4994042;28;20030;-69
2022/02/25 11:25:14;;;;;;;5.03;1.95;;;17.60;56.10;;;;;;4994412;28;20419;-72
2022/02/25 11:27:41;;;;;;;4.82;1.88;;;17.60;56.00;;;;;;4976809;28;20041;-68
2022/02/25 11:30:25;;;;;;;6.68;1.90;;;17.70;55.00;;;;;;4994075;28;20031;-69
2022/02/25 11:33:05;;;;;;;5.13;2.13;;;17.80;54.90;;;;;;4994095;28;20050;-71
2022/02/25 11:35:34;;;;;;;7.47;1.58;;;17.90;54.40;;;;;;4994437;28;20365;-78
2022/02/25 11:38:09;;;;;;;4.05;1.45;;;18.00;53.70;;;;;;4994195;28;20022;-75
2022/02/25 11:40:52;;;;;;;5.90;2.08;;;18.10;53.80;;;;;;4993590;28;20034;-71
2022/02/25 11:43:41;;;;;;;4.85;1.50;;;18.10;53.00;;;;;;4993758;28;20022;-71
2022/02/25 11:46:10;;;;;;;4.85;1.95;;;18.10;52.10;;;;;;4993718;28;20074;-68
2022/02/25 11:48:45;;;;;;;4.90;1.92;;;18.10;53.40;;;;;;4993863;28;20388;-71
2022/02/25 11:51:34;;;;;;;4.40;1.70;;;18.10;51.60;;;;;;4993886;28;20029;-69
2022/02/25 11:54:28;;;;;;;7.82;2.35;;;18.00;51.70;;;;;;4993810;28;20026;-68
2022/02/25 11:56:56;;;;;;;6.00;2.47;;;18.00;51.50;;;;;;4993855;28;20031;-71
2022/02/25 11:59:22;;;;;;;4.93;1.95;;;18.10;52.70;;;;;;4993757;28;20030;-71
2022/02/25 12:02:13;;;;;;;6.95;2.05;;;18.10;52.50;;;;;;4993836;28;20030;-70
2022/02/25 12:04:40;;;;;;;7.53;2.22;;;18.20;51.10;;;;;;4994010;28;20475;-73
2022/02/25 12:07:32;;;;;;;10.65;2.63;;;18.40;52.40;;;;;;4993490;28;20042;-69
2022/02/25 12:10:14;;;;;;;7.28;1.70;;;18.30;50.20;;;;;;4993535;28;20435;-71
2022/02/25 12:12:41;;;;;;;6.53;2.17;;;18.40;50.80;;;;;;4993659;28;20027;-68
2022/02/25 12:15:09;;;;;;;4.63;1.73;;;18.40;50.80;;;;;;4993233;28;20071;-68
2022/02/25 12:17:38;;;;;;;11.88;3.35;;;18.30;51.10;;;;;;4993705;28;20109;-72
2022/02/25 12:20:16;;;;;;;9.48;2.40;;;18.20;50.20;;;;;;4975717;28;20034;-73
2022/02/25 12:23:04;;;;;;;5.20;2.15;;;18.20;49.80;;;;;;4993784;28;20502;-74
2022/02/25 12:25:43;;;;;;;6.40;1.90;;;18.30;49.90;;;;;;4993425;28;20113;-75
2022/02/25 12:28:22;;;;;;;6.80;2.28;;;18.40;51.30;;;;;;4993201;28;20136;-73
2022/02/25 12:30:56;;;;;;;10.10;2.15;;;18.40;49.80;;;;;;4993461;28;20033;-76
2022/02/25 12:33:29;;;;;;;;;;;18.30;51.50;;;;;;4993685;28;20033;-77
2022/02/25 12:35:57;;;;;;;5.35;2.08;;;18.30;50.30;;;;;;4993540;28;19910;-71
2022/02/25 12:38:25;;;;;;;6.57;2.17;;;18.40;51.70;;;;;;4993269;28;20019;-70
2022/02/25 12:40:52;;;;;;;7.00;3.17;;;18.60;51.70;;;;;;4993093;28;20058;-69
2022/02/25 12:43:19;;;;;;;7.10;2.55;;;18.80;51.40;;;;;;4993789;28;20471;-72
2022/02/25 12:45:46;;;;;;;6.97;1.73;;;18.90;50.90;;;;;;4993372;28;20384;-73